Time;durP1;ratioP1;P1;durP2;ratioP2;P2;SDS_P1;SDS_P2;PMS_P1;PMS_P2;Temp;Humidity;BMP_temperature;BMP_pressure;BME280_temperature;BME280_humidity;BME280_pressure;Samples;Min_cycle;Max_cycle;Signal;HPM_P1;HPM_P2
2024/04/23 00:00:20;;;;;;;30.40;28.13;;;;;;;;;;5320790;26;19997;-93
2024/04/23 00:02:46;;;;;;;26.73;24.55;;;;;;;;;;5320613;26;19993;-94
2024/04/23 00:05:12;;;;;;;26.55;24.27;;;;;;;;;;5320443;26;20040;-93
2024/04/23 00:07:39;;;;;;;32.78;30.23;;;;;;;;;;5320941;26;20005;-92
2024/04/23 00:10:06;;;;;;;24.00;22.02;;;;;;;;;;5320704;26;19997;-93
2024/04/23 00:12:33;;;;;;;32.85;30.25;;;;;;;;;;5307928;27;20001;-92
2024/04/23 00:15:10;;;;;;;34.75;32.05;;;;;;;;;;5286181;27;20000;-94
2024/04/23 00:17:36;;;;;;;31.83;29.35;;;;;;;;;;5286150;27;20002;-94
2024/04/23 00:20:08;;;;;;;35.75;32.90;;;;;;;;;;5318537;26;20012;-92
2024/04/23 00:22:34;;;;;;;35.85;33.15;;;;;;;;;;5320808;26;20000;-93
2024/04/23 00:25:02;;;;;;;33.42;30.88;;;;;;;;;;5318995;26;20011;-94
2024/04/23 00:27:28;;;;;;;36.58;33.63;;;;;;;;;;5286760;27;20009;-94
2024/04/23 00:29:55;;;;;;;34.95;32.22;;;;;;;;;;5318474;26;20034;-94
2024/04/23 00:32:21;;;;;;;39.85;36.75;;;;;;;;;;5336153;26;20055;-93
2024/04/23 00:34:47;;;;;;;32.05;29.63;;;;;;;;;;5320446;26;19997;-93
2024/04/23 00:37:13;;;;;;;37.28;34.45;;;;;;;;;;5320007;26;20013;-92
2024/04/23 00:39:39;;;;;;;38.78;35.97;;;;;;;;;;5320038;26;20007;-92
2024/04/23 00:42:06;;;;;;;33.28;30.65;;;;;;;;;;5292052;27;20005;-93
2024/04/23 00:44:32;;;;;;;35.88;33.22;;;;;;;;;;5290897;26;20017;-92
2024/04/23 00:46:58;;;;;;;34.67;31.70;;;;;;;;;;5319731;26;20004;-93
2024/04/23 00:49:24;;;;;;;41.40;38.33;;;;;;;;;;5319889;26;20004;-93
2024/04/23 00:51:51;;;;;;;32.70;30.05;;;;;;;;;;5297639;27;20006;-93
2024/04/23 00:54:18;;;;;;;30.65;28.20;;;;;;;;;;5287613;27;19997;-93
2024/04/23 00:56:44;;;;;;;35.58;32.65;;;;;;;;;;5290283;27;20021;-92
2024/04/23 00:59:13;;;;;;;37.22;34.40;;;;;;;;;;5301433;26;20079;-93
2024/04/23 01:01:40;;;;;;;35.67;32.95;;;;;;;;;;5319539;26;20427;-93
2024/04/23 01:04:06;;;;;;;31.80;29.30;;;;;;;;;;5319700;26;20001;-93
2024/04/23 01:06:32;;;;;;;33.13;30.48;;;;;;;;;;5319250;26;19997;-92
2024/04/23 01:08:58;;;;;;;40.38;37.33;;;;;;;;;;5319447;26;20008;-92
2024/04/23 01:11:25;;;;;;;35.20;32.67;;;;;;;;;;5319244;26;20074;-92
2024/04/23 01:13:51;;;;;;;37.00;34.22;;;;;;;;;;5319453;26;20001;-93
2024/04/23 01:16:19;;;;;;;46.22;42.83;;;;;;;;;;5319473;26;20044;-94
2024/04/23 01:18:46;;;;;;;35.03;32.38;;;;;;;;;;5319698;26;20008;-91
2024/04/23 01:21:13;;;;;;;30.90;28.33;;;;;;;;;;5319651;26;20070;-93
2024/04/23 01:23:44;;;;;;;32.35;29.80;;;;;;;;;;5349694;26;20008;-92
2024/04/23 01:26:11;;;;;;;33.28;30.75;;;;;;;;;;5286223;27;20001;-92
2024/04/23 01:28:39;;;;;;;37.80;34.88;;;;;;;;;;5285452;27;20012;-93
2024/04/23 01:31:10;;;;;;;36.33;33.60;;;;;;;;;;5285881;27;20012;-92
2024/04/23 01:33:38;;;;;;;37.85;34.95;;;;;;;;;;5308880;27;20116;-92
2024/04/23 01:36:05;;;;;;;36.70;33.95;;;;;;;;;;5286813;27;20002;-93
2024/04/23 01:38:32;;;;;;;30.95;28.48;;;;;;;;;;5285276;27;19998;-94
2024/04/23 01:40:58;;;;;;;36.30;33.45;;;;;;;;;;5284966;27;20013;-93
2024/04/23 01:43:25;;;;;;;33.65;30.95;;;;;;;;;;5316119;26;20024;-95
2024/04/23 01:45:51;;;;;;;33.50;30.90;;;;;;;;;;5318981;26;20001;-92
2024/04/23 01:48:17;;;;;;;35.63;32.95;;;;;;;;;;5318957;26;19996;-92
2024/04/23 01:50:43;;;;;;;33.38;30.95;;;;;;;;;;5312515;27;20462;-92
2024/04/23 01:53:09;;;;;;;30.60;28.30;;;;;;;;;;5284684;27;20009;-92
2024/04/23 01:55:35;;;;;;;36.58;33.88;;;;;;;;;;5284802;27;20012;-92
2024/04/23 01:58:02;;;;;;;37.92;34.83;;;;;;;;;;5284332;27;19998;-92
2024/04/23 02:00:29;;;;;;;31.13;28.75;;;;;;;;;;5285288;27;20323;-92
2024/04/23 02:02:56;;;;;;;31.42;29.10;;;;;;;;;;5285101;27;20021;-93
2024/04/23 02:05:23;;;;;;;33.53;31.00;;;;;;;;;;5284832;27;20002;-92
2024/04/23 02:07:49;;;;;;;24.52;22.63;;;;;;;;;;5285550;27;20008;-93
2024/04/23 02:10:15;;;;;;;35.28;32.63;;;;;;;;;;5309768;26;20011;-91
2024/04/23 02:12:41;;;;;;;36.65;33.95;;;;;;;;;;5308526;26;20012;-92
2024/04/23 02:15:07;;;;;;;28.35;26.13;;;;;;;;;;5291693;26;20457;-91
2024/04/23 02:17:34;;;;;;;35.05;32.33;;;;;;;;;;5318489;26;19997;-91
2024/04/23 02:20:03;;;;;;;34.75;31.75;;;;;;;;;;5318670;26;19996;-92
2024/04/23 02:22:29;;;;;;;32.90;30.35;;;;;;;;;;5308591;27;19997;-92
2024/04/23 02:24:55;;;;;;;29.35;27.00;;;;;;;;;;5284198;27;19998;-92
2024/04/23 02:27:21;;;;;;;30.00;27.60;;;;;;;;;;5284728;27;19994;-92
2024/04/23 02:29:47;;;;;;;28.95;26.75;;;;;;;;;;5284107;27;20082;-93
2024/04/23 02:32:13;;;;;;;29.80;27.40;;;;;;;;;;5283762;27;20001;-92
2024/04/23 02:34:40;;;;;;;25.80;23.73;;;;;;;;;;5293827;26;20001;-93
2024/04/23 02:37:06;;;;;;;30.77;28.25;;;;;;;;;;5317865;26;20066;-92
2024/04/23 02:39:32;;;;;;;28.70;26.40;;;;;;;;;;5304090;26;20434;-92
2024/04/23 02:41:58;;;;;;;27.58;25.30;;;;;;;;;;5305911;27;20038;-90
2024/04/23 02:44:25;;;;;;;29.90;27.50;;;;;;;;;;5315123;27;19998;-92
2024/04/23 02:46:52;;;;;;;26.90;24.40;;;;;;;;;;5283835;27;19998;-93
2024/04/23 02:49:18;;;;;;;23.38;21.27;;;;;;;;;;5284101;27;20004;-92
2024/04/23 02:51:51;;;;;;;26.33;24.13;;;;;;;;;;5283748;27;19998;-92
2024/04/23 02:54:18;;;;;;;24.40;22.40;;;;;;;;;;5298341;27;20006;-93
2024/04/23 02:56:47;;;;;;;26.65;24.45;;;;;;;;;;5282889;27;20033;-92
2024/04/23 02:59:13;;;;;;;21.73;19.90;;;;;;;;;;5283650;27;20009;-93
2024/04/23 03:01:39;;;;;;;20.63;18.42;;;;;;;;;;5283702;27;20002;-92
2024/04/23 03:04:05;;;;;;;23.05;20.80;;;;;;;;;;5283473;27;20012;-92
2024/04/23 03:06:32;;;;;;;24.05;21.83;;;;;;;;;;5283607;27;20002;-93
2024/04/23 03:08:58;;;;;;;22.65;20.70;;;;;;;;;;5283618;27;20004;-91
2024/04/23 03:11:24;;;;;;;23.08;20.98;;;;;;;;;;5283569;27;20013;-93
2024/04/23 03:13:51;;;;;;;22.38;20.33;;;;;;;;;;5283785;27;20041;-93
2024/04/23 03:16:17;;;;;;;23.55;21.60;;;;;;;;;;5283374;27;20012;-93
2024/04/23 03:18:43;;;;;;;19.42;17.42;;;;;;;;;;5284051;27;20068;-92
2024/04/23 03:21:09;;;;;;;22.20;20.10;;;;;;;;;;5283671;27;19997;-93
2024/04/23 03:23:35;;;;;;;22.40;20.27;;;;;;;;;;5284064;27;20026;-93
2024/04/23 03:26:02;;;;;;;16.85;15.02;;;;;;;;;;5314484;26;20108;-92
2024/04/23 03:28:28;;;;;;;23.42;21.23;;;;;;;;;;5317951;26;20000;-92
2024/04/23 03:30:54;;;;;;;22.58;20.50;;;;;;;;;;5317582;26;19997;-93
2024/04/23 03:33:20;;;;;;;21.10;19.10;;;;;;;;;;5317839;26;20001;-93
2024/04/23 03:35:46;;;;;;;21.05;19.02;;;;;;;;;;5306640;27;20001;-92
2024/04/23 03:38:12;;;;;;;20.73;18.52;;;;;;;;;;5283642;27;20352;-94
2024/04/23 03:40:38;;;;;;;20.25;18.17;;;;;;;;;;5283677;27;20045;-92
2024/04/23 03:43:05;;;;;;;21.58;19.45;;;;;;;;;;5284162;27;19999;-90
2024/04/23 03:45:31;;;;;;;20.42;18.33;;;;;;;;;;5283873;27;20041;-92
2024/04/23 03:47:57;;;;;;;19.83;18.00;;;;;;;;;;5284139;27;19998;-90
2024/04/23 03:50:23;;;;;;;18.85;17.15;;;;;;;;;;5313755;26;20010;-93
2024/04/23 03:52:49;;;;;;;20.58;17.50;;;;;;;;;;5300752;26;20009;-93
2024/04/23 03:55:15;;;;;;;21.85;19.77;;;;;;;;;;5288623;27;20446;-91
2024/04/23 03:57:42;;;;;;;20.05;18.02;;;;;;;;;;5291013;27;20002;-91
2024/04/23 04:00:08;;;;;;;19.73;17.70;;;;;;;;;;5307578;26;20001;-92
2024/04/23 04:08:07;;;;;;;19.38;17.48;;;;;;;;;;5350727;26;20007;-90
2024/04/23 04:10:36;;;;;;;19.60;17.60;;;;;;;;;;5319920;26;20001;-92
2024/04/23 04:13:02;;;;;;;16.02;14.35;;;;;;;;;;5319935;26;20008;-92
2024/04/23 04:15:28;;;;;;;20.42;18.40;;;;;;;;;;5320354;26;20021;-91
2024/04/23 04:17:54;;;;;;;20.92;18.83;;;;;;;;;;5288588;27;19998;-90
2024/04/23 04:20:20;;;;;;;20.52;18.55;;;;;;;;;;5286023;27;19997;-93
2024/04/23 04:22:46;;;;;;;18.30;16.38;;;;;;;;;;5286249;27;20005;-92
2024/04/23 04:25:12;;;;;;;20.88;18.77;;;;;;;;;;5333940;26;20443;-91
2024/04/23 04:27:38;;;;;;;14.88;12.68;;;;;;;;;;5354574;26;19996;-92
2024/04/23 04:30:06;;;;;;;16.80;15.02;;;;;;;;;;5352772;26;19992;-90
2024/04/23 04:32:33;;;;;;;17.38;15.68;;;;;;;;;;5350366;26;20078;-90
2024/04/23 04:34:59;;;;;;;15.38;13.70;;;;;;;;;;5319837;26;19997;-91
2024/04/23 04:37:32;;;;;;;21.95;19.75;;;;;;;;;;5320460;26;19993;-90
2024/04/23 04:39:58;;;;;;;20.70;18.73;;;;;;;;;;5320042;26;19993;-92
2024/04/23 04:42:24;;;;;;;17.58;15.70;;;;;;;;;;5321889;26;20067;-92
2024/04/23 04:44:50;;;;;;;20.63;18.48;;;;;;;;;;5321427;26;19996;-93
2024/04/23 04:47:19;;;;;;;23.77;17.42;;;;;;;;;;5321485;26;20070;-93
2024/04/23 04:49:46;;;;;;;18.60;16.85;;;;;;;;;;5320711;26;20012;-93
2024/04/23 04:52:18;;;;;;;20.17;18.08;;;;;;;;;;5310073;27;20001;-93
2024/04/23 04:54:47;;;;;;;19.55;17.70;;;;;;;;;;5287852;27;19997;-93
2024/04/23 04:57:13;;;;;;;19.08;17.10;;;;;;;;;;5289149;27;20007;-93
2024/04/23 04:59:43;;;;;;;19.08;16.38;;;;;;;;;;5290472;27;20001;-94
2024/04/23 05:02:09;;;;;;;16.92;15.23;;;;;;;;;;5286457;27;20025;-94
2024/04/23 05:04:36;;;;;;;21.92;19.90;;;;;;;;;;5288287;26;20071;-93
2024/04/23 05:07:02;;;;;;;19.85;17.77;;;;;;;;;;5301491;27;20002;-92
2024/04/23 05:09:28;;;;;;;18.33;16.52;;;;;;;;;;5288301;27;20420;-93
2024/04/23 05:12:00;;;;;;;19.95;17.90;;;;;;;;;;5288888;27;20008;-95
2024/04/23 05:14:27;;;;;;;15.75;14.18;;;;;;;;;;5289249;27;20002;-94
2024/04/23 05:17:03;;;;;;;15.05;13.60;;;;;;;;;;5292199;27;20029;-94
2024/04/23 05:19:29;;;;;;;20.55;18.35;;;;;;;;;;5335492;21;20461;-93
2024/04/23 05:21:55;;;;;;;16.95;15.32;;;;;;;;;;5296598;27;20001;-94
2024/04/23 05:24:22;;;;;;;17.17;15.40;;;;;;;;;;5288691;27;20390;-94
2024/04/23 05:26:48;;;;;;;18.60;16.90;;;;;;;;;;5301320;26;20001;-93
2024/04/23 05:29:51;;;;;;;18.88;17.13;;;;;;;;;;5303766;27;20005;-94
2024/04/23 05:35:04;;;;;;;19.73;17.85;;;;;;;;;;5412845;21;20082;-93
2024/04/23 05:37:30;;;;;;;18.10;16.30;;;;;;;;;;5355001;26;20011;-94
2024/04/23 05:39:56;;;;;;;17.35;15.50;;;;;;;;;;5343820;21;20023;-93
2024/04/23 05:42:22;;;;;;;22.40;20.45;;;;;;;;;;5319517;26;20005;-93
2024/04/23 05:48:06;;;;;;;23.92;21.67;;;;;;;;;;5314947;27;20049;-93
2024/04/23 05:50:51;;;;;;;25.13;23.13;;;;;;;;;;5313750;26;20040;-94
2024/04/23 05:53:36;;;;;;;31.38;28.80;;;;;;;;;;5285455;27;20001;-93
2024/04/23 05:56:21;;;;;;;35.60;32.88;;;;;;;;;;5285251;27;20442;-93
2024/04/23 05:58:47;;;;;;;37.03;34.53;;;;;;;;;;5291022;26;20084;-94
2024/04/23 06:01:14;;;;;;;45.63;42.40;;;;;;;;;;5319254;26;19997;-93
2024/04/23 06:03:40;;;;;;;59.58;55.17;;;;;;;;;;5318962;26;20008;-93
2024/04/23 06:06:09;;;;;;;64.25;60.17;;;;;;;;;;5319003;26;20353;-94
2024/04/23 06:08:35;;;;;;;57.70;53.65;;;;;;;;;;5320645;26;20012;-93
2024/04/23 06:11:01;;;;;;;55.90;52.22;;;;;;;;;;5324516;26;20013;-94
2024/04/23 06:13:27;;;;;;;46.58;43.53;;;;;;;;;;5445717;21;20025;-93
2024/04/23 06:15:53;;;;;;;61.10;56.65;;;;;;;;;;5317395;27;19993;-92
2024/04/23 06:21:13;;;;;;;54.35;50.63;;;;;;;;;;5377570;21;20008;-91
2024/04/23 06:23:45;;;;;;;;;;;;;;;;;;5549475;22;20050;-93
2024/04/23 06:29:18;;;;;;;50.38;47.08;;;;;;;;;;5385891;26;20066;-92
2024/04/23 06:32:06;;;;;;;79.65;74.75;;;;;;;;;;5354972;26;20000;-93
2024/04/23 06:37:45;;;;;;;61.53;57.42;;;;;;;;;;5384975;26;20003;-96
2024/04/23 06:40:33;;;;;;;53.78;50.38;;;;;;;;;;5354952;26;19996;-94
2024/04/23 06:43:05;;;;;;;61.25;57.30;;;;;;;;;;5355550;26;20000;-92
2024/04/23 06:45:31;;;;;;;51.53;48.20;;;;;;;;;;5355101;26;20045;-93
2024/04/23 06:48:15;;;;;;;40.67;38.05;;;;;;;;;;5356327;26;20134;-92
2024/04/23 06:50:45;;;;;;;71.03;66.70;;;;;;;;;;5357606;26;20000;-90
2024/04/23 06:55:48;;;;;;;87.68;82.38;;;;;;;;;;5566290;21;20224;-93
2024/04/23 07:01:52;;;;;;;57.97;54.35;;;;;;;;;;5356760;26;20009;-92
2024/04/23 07:04:19;;;;;;;65.47;61.38;;;;;;;;;;5325830;26;20001;-94
2024/04/23 07:07:00;;;;;;;66.65;62.28;;;;;;;;;;5327460;26;20001;-92
2024/04/23 07:09:31;;;;;;;60.50;56.75;;;;;;;;;;5349065;26;19993;-91
2024/04/23 07:17:03;;;;;;;42.10;39.25;;;;;;;;;;5315810;26;20013;-91
2024/04/23 07:20:11;;;;;;;;;;;;;;;;;;;;;
2024/04/23 07:22:42;;;;;;;57.53;54.03;;;;;;;;;;5218529;27;20000;-92
2024/04/23 07:25:14;;;;;;;58.70;54.95;;;;;;;;;;5317989;27;20008;-93
2024/04/23 07:28:00;;;;;;;51.65;48.42;;;;;;;;;;5279640;27;19998;-94
2024/04/23 07:33:35;;;;;;;43.58;40.90;;;;;;;;;;5252174;27;20035;-93
2024/04/23 07:41:24;;;;;;;35.88;33.38;;;;;;;;;;5366640;21;20008;-93
2024/04/23 07:43:51;;;;;;;51.70;48.58;;;;;;;;;;5323175;26;20007;-91
2024/04/23 07:49:22;;;;;;;64.15;60.20;;;;;;;;;;5323843;26;20052;-92
2024/04/23 07:51:51;;;;;;;64.93;60.88;;;;;;;;;;5293071;27;19997;-92
2024/04/23 07:54:17;;;;;;;56.80;53.28;;;;;;;;;;5293255;27;20001;-92
2024/04/23 07:56:49;;;;;;;73.18;68.68;;;;;;;;;;5292266;27;20004;-93
2024/04/23 07:59:24;;;;;;;64.03;60.05;;;;;;;;;;5293436;27;20018;-92
2024/04/23 08:01:51;;;;;;;59.78;55.90;;;;;;;;;;5293369;27;20450;-93
2024/04/23 08:04:42;;;;;;;61.75;58.03;;;;;;;;;;5297739;27;20013;-93
2024/04/23 08:20:05;;;;;;;51.70;48.38;;;;;;;;;;5320706;27;20105;-92
2024/04/23 08:22:31;;;;;;;52.72;49.33;;;;;;;;;;5318926;27;20442;-92
2024/04/23 08:25:01;;;;;;;52.92;49.45;;;;;;;;;;5319406;27;20009;-92
2024/04/23 08:27:27;;;;;;;47.90;44.75;;;;;;;;;;5320464;27;20033;-92
2024/04/23 08:29:53;;;;;;;41.28;38.20;;;;;;;;;;5318641;27;19993;-91
2024/04/23 08:32:20;;;;;;;51.00;47.08;;;;;;;;;;5289781;27;20063;-91
2024/04/23 08:34:46;;;;;;;44.78;41.65;;;;;;;;;;5288829;27;20001;-90
2024/04/23 08:40:16;;;;;;;38.97;36.30;;;;;;;;;;5361969;21;20008;-94
2024/04/23 08:42:44;;;;;;;41.33;38.50;;;;;;;;;;5320953;26;20008;-93
2024/04/23 08:45:11;;;;;;;42.67;39.67;;;;;;;;;;5321185;26;19993;-93
2024/04/23 08:47:38;;;;;;;51.80;48.38;;;;;;;;;;5328772;26;20011;-93
2024/04/23 08:50:04;;;;;;;44.83;41.72;;;;;;;;;;5324135;26;20334;-93
2024/04/23 08:52:31;;;;;;;47.38;44.08;;;;;;;;;;5321837;26;20000;-93
2024/04/23 08:54:59;;;;;;;46.92;43.60;;;;;;;;;;5330514;26;19997;-92
2024/04/23 08:57:27;;;;;;;43.78;40.83;;;;;;;;;;5330255;26;20033;-92
2024/04/23 08:59:54;;;;;;;58.88;55.03;;;;;;;;;;5295731;26;20029;-92
2024/04/23 09:02:25;;;;;;;63.15;58.10;;;;;;;;;;5308266;27;20451;-92
2024/04/23 09:04:58;;;;;;;61.05;56.80;;;;;;;;;;5289938;27;20000;-93
2024/04/23 09:07:24;;;;;;;62.35;58.35;;;;;;;;;;5288060;27;20012;-90
2024/04/23 09:09:51;;;;;;;68.03;63.63;;;;;;;;;;5288284;27;20012;-92
2024/04/23 09:12:17;;;;;;;63.03;58.80;;;;;;;;;;5314497;26;20017;-94
2024/04/23 09:14:48;;;;;;;66.68;62.35;;;;;;;;;;5324452;26;20009;-95
2024/04/23 09:17:15;;;;;;;72.95;68.38;;;;;;;;;;5324587;26;20012;-94
2024/04/23 09:20:04;;;;;;;57.65;54.05;;;;;;;;;;5296471;26;20001;-93
2024/04/23 09:22:30;;;;;;;61.78;57.97;;;;;;;;;;5325934;26;20036;-93
2024/04/23 09:25:00;;;;;;;58.03;54.40;;;;;;;;;;5324439;26;20007;-92
2024/04/23 09:27:36;;;;;;;78.75;73.78;;;;;;;;;;5326354;26;19997;-93
2024/04/23 09:30:04;;;;;;;68.82;64.55;;;;;;;;;;5325058;26;20013;-93
2024/04/23 09:32:30;;;;;;;63.70;59.75;;;;;;;;;;5327268;26;19997;-94
2024/04/23 09:35:00;;;;;;;68.88;64.70;;;;;;;;;;5325109;26;20001;-91
2024/04/23 09:37:28;;;;;;;58.92;55.20;;;;;;;;;;5318751;27;20077;-92
2024/04/23 09:40:04;;;;;;;58.00;54.50;;;;;;;;;;5291047;27;20001;-95
2024/04/23 09:42:35;;;;;;;53.38;50.10;;;;;;;;;;5321842;27;19998;-92
2024/04/23 09:45:01;;;;;;;58.88;55.47;;;;;;;;;;5292164;27;20001;-93
2024/04/23 09:47:28;;;;;;;51.85;48.20;;;;;;;;;;5331683;26;20104;-94
2024/04/23 09:49:55;;;;;;;55.40;51.95;;;;;;;;;;5317638;26;20015;-94
2024/04/23 09:52:35;;;;;;;57.97;54.58;;;;;;;;;;5293746;27;20001;-92
2024/04/23 09:55:06;;;;;;;42.22;39.53;;;;;;;;;;5288207;27;20011;-93
2024/04/23 09:57:35;;;;;;;47.67;44.65;;;;;;;;;;5283666;27;19997;-92
2024/04/23 10:00:03;;;;;;;53.78;50.38;;;;;;;;;;5317320;26;20009;-94
2024/04/23 10:02:30;;;;;;;44.63;41.75;;;;;;;;;;5288278;27;20044;-93
2024/04/23 10:05:07;;;;;;;52.90;49.60;;;;;;;;;;5286483;27;20009;-93
2024/04/23 10:07:55;;;;;;;42.75;40.20;;;;;;;;;;5288327;27;20008;-93
2024/04/23 10:10:28;;;;;;;55.53;52.13;;;;;;;;;;5288731;27;20047;-92
2024/04/23 10:12:56;;;;;;;43.78;41.13;;;;;;;;;;5287726;27;19998;-93
2024/04/23 10:15:45;;;;;;;43.33;40.70;;;;;;;;;;5289158;27;19998;-91
2024/04/23 10:18:24;;;;;;;47.50;44.60;;;;;;;;;;5311401;26;20033;-92
2024/04/23 10:20:53;;;;;;;48.78;45.78;;;;;;;;;;5307075;27;20338;-93
2024/04/23 10:23:20;;;;;;;48.63;45.72;;;;;;;;;;5289933;27;20334;-93
2024/04/23 10:25:47;;;;;;;46.33;43.42;;;;;;;;;;5319685;26;20014;-94
2024/04/23 10:28:14;;;;;;;43.35;40.63;;;;;;;;;;5314144;27;20008;-95
2024/04/23 10:30:42;;;;;;;49.75;46.75;;;;;;;;;;5319545;27;20008;-93
2024/04/23 10:33:09;;;;;;;49.20;46.22;;;;;;;;;;5302080;26;20002;-89
2024/04/23 10:35:39;;;;;;;49.72;46.70;;;;;;;;;;5314358;26;20016;-93
2024/04/23 10:38:07;;;;;;;45.58;42.78;;;;;;;;;;5293675;27;20013;-91
2024/04/23 10:40:34;;;;;;;42.03;39.30;;;;;;;;;;5290339;27;20033;-92
2024/04/23 10:43:02;;;;;;;51.70;48.58;;;;;;;;;;5317170;26;20009;-94
2024/04/23 10:45:30;;;;;;;48.72;45.75;;;;;;;;;;5320832;26;20012;-94
2024/04/23 10:47:56;;;;;;;46.70;43.88;;;;;;;;;;5322141;26;20438;-93
2024/04/23 10:50:30;;;;;;;44.65;41.67;;;;;;;;;;5352879;26;20001;-93
2024/04/23 10:52:57;;;;;;;54.42;51.03;;;;;;;;;;5323014;26;20012;-92
2024/04/23 10:55:25;;;;;;;63.30;59.53;;;;;;;;;;5322414;26;20074;-94
2024/04/23 10:57:51;;;;;;;63.75;59.92;;;;;;;;;;5325643;26;20393;-91
2024/04/23 11:00:25;;;;;;;71.03;66.75;;;;;;;;;;5323332;26;20004;-92
2024/04/23 11:02:53;;;;;;;63.55;59.83;;;;;;;;;;5326401;26;20008;-95
2024/04/23 11:05:19;;;;;;;58.15;54.72;;;;;;;;;;5323874;26;20009;-92
2024/04/23 11:07:54;;;;;;;75.88;71.43;;;;;;;;;;5321564;26;20025;-91
2024/04/23 11:10:21;;;;;;;53.15;49.95;;;;;;;;;;5265092;27;19994;-92
2024/04/23 11:13:04;;;;;;;57.83;54.13;;;;;;;;;;5299854;27;19997;-93
2024/04/23 11:15:31;;;;;;;68.80;64.60;;;;;;;;;;5289464;27;20010;-95
2024/04/23 11:18:04;;;;;;;64.13;60.25;;;;;;;;;;5350265;26;20008;-94
2024/04/23 11:20:34;;;;;;;66.57;62.63;;;;;;;;;;5291905;27;20001;-93
2024/04/23 11:23:03;;;;;;;69.40;65.35;;;;;;;;;;5326243;26;20002;-91
2024/04/23 11:25:34;;;;;;;71.15;66.85;;;;;;;;;;5315820;27;20016;-92
2024/04/23 11:28:02;;;;;;;55.63;52.38;;;;;;;;;;5310690;26;19994;-92
2024/04/23 11:30:28;;;;;;;63.30;59.60;;;;;;;;;;5303767;27;20070;-93
2024/04/23 11:32:56;;;;;;;68.88;64.78;;;;;;;;;;5293529;27;20005;-93
2024/04/23 11:35:25;;;;;;;63.42;59.72;;;;;;;;;;5293707;27;19994;-92
2024/04/23 11:37:56;;;;;;;63.67;59.95;;;;;;;;;;5293619;27;20050;-91
2024/04/23 11:40:23;;;;;;;69.28;65.18;;;;;;;;;;5321051;27;20031;-92
2024/04/23 11:42:49;;;;;;;52.28;49.03;;;;;;;;;;5350586;21;20334;-91
2024/04/23 11:45:15;;;;;;;55.42;52.03;;;;;;;;;;5326623;26;20024;-91
2024/04/23 11:48:00;;;;;;;55.03;51.70;;;;;;;;;;5358231;26;20000;-93
2024/04/23 11:50:32;;;;;;;69.10;65.05;;;;;;;;;;5356917;26;20432;-92
2024/04/23 11:53:01;;;;;;;59.00;55.50;;;;;;;;;;5326863;26;20063;-91
2024/04/23 11:55:46;;;;;;;57.00;53.53;;;;;;;;;;5327866;26;20000;-89
2024/04/23 11:58:22;;;;;;;47.33;44.53;;;;;;;;;;5330158;26;20001;-94
2024/04/23 12:00:49;;;;;;;46.50;43.70;;;;;;;;;;5329177;26;20052;-92
2024/04/23 12:03:16;;;;;;;56.00;52.72;;;;;;;;;;5326158;26;20016;-94
2024/04/23 12:05:42;;;;;;;46.95;44.15;;;;;;;;;;5322613;26;20004;-95
2024/04/23 12:08:09;;;;;;;52.83;49.75;;;;;;;;;;5322839;26;20009;-93
2024/04/23 12:10:37;;;;;;;54.20;50.95;;;;;;;;;;5323558;26;20075;-95
2024/04/23 12:13:03;;;;;;;61.67;58.03;;;;;;;;;;5308518;26;20009;-94
2024/04/23 12:18:50;;;;;;;56.08;52.38;;;;;;;;;;5346884;26;20013;-94
2024/04/23 12:21:35;;;;;;;49.03;45.97;;;;;;;;;;5291576;27;20075;-93
2024/04/23 12:24:33;;;;;;;52.28;49.28;;;;;;;;;;5320117;26;20004;-93
2024/04/23 12:27:02;;;;;;;52.78;49.63;;;;;;;;;;5321318;26;20339;-95
2024/04/23 12:29:30;;;;;;;52.92;49.80;;;;;;;;;;5298297;27;20006;-93
2024/04/23 12:32:00;;;;;;;51.58;48.58;;;;;;;;;;5287445;27;20013;-94
2024/04/23 12:34:26;;;;;;;49.88;46.85;;;;;;;;;;5282459;27;20002;-93
2024/04/23 12:36:52;;;;;;;61.22;57.50;;;;;;;;;;5315144;26;20005;-95
2024/04/23 12:39:19;;;;;;;57.25;53.85;;;;;;;;;;5316737;26;19997;-92
2024/04/23 12:41:49;;;;;;;57.33;53.90;;;;;;;;;;5287659;27;19998;-94
2024/04/23 12:44:16;;;;;;;54.42;51.20;;;;;;;;;;5281099;27;20020;-93
2024/04/23 12:46:42;;;;;;;54.97;51.85;;;;;;;;;;5281239;27;20337;-95
2024/04/23 12:49:11;;;;;;;57.40;54.05;;;;;;;;;;5281444;27;20030;-94
2024/04/23 12:51:37;;;;;;;53.90;50.70;;;;;;;;;;5281271;27;19998;-93
2024/04/23 12:54:08;;;;;;;65.07;61.38;;;;;;;;;;5282096;27;20002;-94
2024/04/23 12:56:38;;;;;;;49.30;46.40;;;;;;;;;;5281149;27;20008;-94
2024/04/23 12:59:13;;;;;;;53.22;49.95;;;;;;;;;;5280502;27;19998;-94
2024/04/23 13:01:39;;;;;;;48.05;45.22;;;;;;;;;;5280126;27;20002;-94
2024/04/23 13:04:05;;;;;;;49.38;46.40;;;;;;;;;;5280575;27;20448;-94
2024/04/23 13:06:36;;;;;;;53.28;50.05;;;;;;;;;;5280297;27;20014;-94
2024/04/23 13:09:02;;;;;;;52.42;49.25;;;;;;;;;;5280297;27;20017;-93
2024/04/23 13:11:31;;;;;;;59.15;55.58;;;;;;;;;;5280296;27;20436;-94
2024/04/23 13:13:57;;;;;;;54.53;51.38;;;;;;;;;;5280020;27;20418;-93
2024/04/23 13:16:29;;;;;;;50.53;47.58;;;;;;;;;;5280329;27;20010;-94
2024/04/23 13:18:56;;;;;;;50.42;47.58;;;;;;;;;;5280938;27;20002;-94
2024/04/23 13:21:22;;;;;;;45.15;42.50;;;;;;;;;;5280920;27;20002;-94
2024/04/23 13:23:48;;;;;;;58.83;55.53;;;;;;;;;;5280557;27;20017;-94
2024/04/23 13:26:14;;;;;;;51.50;48.35;;;;;;;;;;5280462;27;20010;-91
2024/04/23 13:28:43;;;;;;;54.10;50.90;;;;;;;;;;5282736;27;20003;-93
2024/04/23 13:31:09;;;;;;;58.55;54.42;;;;;;;;;;5282134;27;20085;-95
2024/04/23 13:33:38;;;;;;;40.17;37.15;;;;;;;;;;5281095;27;20002;-94
2024/04/23 13:36:16;;;;;;;61.20;56.92;;;;;;;;;;5284969;27;20002;-94
2024/04/23 13:38:51;;;;;;;43.72;41.13;;;;;;;;;;5279480;27;20005;-90
2024/04/23 13:41:22;;;;;;;24.45;22.85;;;;;;;;;;5281010;27;20023;-91
2024/04/23 13:43:52;;;;;;;37.00;34.88;;;;;;;;;;5280502;27;19994;-92
2024/04/23 13:46:18;;;;;;;45.63;42.88;;;;;;;;;;5283419;27;20006;-93
2024/04/23 13:48:44;;;;;;;39.20;36.90;;;;;;;;;;5283482;27;20005;-94
2024/04/23 13:51:10;;;;;;;45.97;43.33;;;;;;;;;;5285670;27;20030;-93
2024/04/23 13:53:37;;;;;;;48.72;45.92;;;;;;;;;;5286146;27;20009;-93
2024/04/23 13:56:06;;;;;;;42.35;39.88;;;;;;;;;;5295430;27;20041;-90
2024/04/23 13:58:35;;;;;;;63.60;59.90;;;;;;;;;;5294596;27;20014;-94
2024/04/23 14:01:08;;;;;;;47.85;45.15;;;;;;;;;;5285120;27;20034;-94
2024/04/23 14:03:36;;;;;;;37.42;35.20;;;;;;;;;;5281714;27;20006;-92
2024/04/23 14:06:06;;;;;;;55.63;52.10;;;;;;;;;;5283175;27;20077;-95
2024/04/23 14:08:33;;;;;;;48.97;46.00;;;;;;;;;;5285521;27;20010;-93
2024/04/23 14:11:00;;;;;;;58.55;54.70;;;;;;;;;;5282962;27;20006;-95
2024/04/23 14:13:26;;;;;;;62.53;58.22;;;;;;;;;;5283085;27;20026;-92
2024/04/23 14:15:58;;;;;;;44.05;40.58;;;;;;;;;;5283771;27;20073;-93
2024/04/23 14:18:31;;;;;;;57.37;53.63;;;;;;;;;;5283798;27;20026;-96
2024/04/23 14:21:00;;;;;;;48.90;45.80;;;;;;;;;;5256343;27;20221;-92
2024/04/23 14:23:26;;;;;;;53.05;49.83;;;;;;;;;;5284567;27;20002;-93
2024/04/23 14:25:52;;;;;;;27.60;25.55;;;;;;;;;;5283730;27;19998;-93
2024/04/23 14:28:19;;;;;;;43.05;40.45;;;;;;;;;;5283857;27;20002;-91
2024/04/23 14:30:47;;;;;;;33.97;31.73;;;;;;;;;;5282510;27;20017;-92
2024/04/23 14:33:13;;;;;;;45.92;43.30;;;;;;;;;;5282382;27;19995;-93
2024/04/23 14:35:39;;;;;;;43.08;40.47;;;;;;;;;;5283073;27;20026;-94
2024/04/23 14:38:08;;;;;;;57.53;53.50;;;;;;;;;;5284252;27;19994;-95
2024/04/23 14:40:58;;;;;;;26.98;25.35;;;;;;;;;;5282818;27;20002;-93
2024/04/23 14:43:27;;;;;;;31.02;28.80;;;;;;;;;;5280698;26;20009;-94
2024/04/23 14:45:54;;;;;;;26.05;24.08;;;;;;;;;;5317215;26;20000;-95
2024/04/23 14:48:23;;;;;;;33.42;31.42;;;;;;;;;;5304254;26;20051;-94
2024/04/23 14:50:57;;;;;;;27.17;25.58;;;;;;;;;;5323402;26;20016;-94
2024/04/23 14:53:26;;;;;;;28.20;26.55;;;;;;;;;;5305833;27;20016;-92
2024/04/23 14:56:01;;;;;;;33.60;31.65;;;;;;;;;;5289206;27;20010;-93
2024/04/23 14:58:29;;;;;;;32.13;30.33;;;;;;;;;;5318788;26;20005;-93
2024/04/23 15:00:55;;;;;;;26.15;24.65;;;;;;;;;;5314826;27;20002;-95
2024/04/23 15:03:31;;;;;;;24.90;23.27;;;;;;;;;;5319403;26;20004;-95
2024/04/23 15:05:57;;;;;;;29.73;27.95;;;;;;;;;;5322419;26;20016;-95
2024/04/23 15:08:24;;;;;;;29.98;28.17;;;;;;;;;;5325152;26;19997;-94
2024/04/23 15:10:58;;;;;;;29.77;27.98;;;;;;;;;;5403747;22;20002;-96
2024/04/23 15:13:27;;;;;;;33.42;31.42;;;;;;;;;;5671581;21;20025;-94
2024/04/23 15:16:00;;;;;;;29.08;27.38;;;;;;;;;;5660104;21;20032;-93
2024/04/23 15:18:36;;;;;;;38.08;35.88;;;;;;;;;;5911401;21;20001;-93
2024/04/23 15:21:03;;;;;;;29.67;27.85;;;;;;;;;;5329553;26;20008;-94
2024/04/23 15:23:30;;;;;;;28.67;26.67;;;;;;;;;;5433815;21;20035;-93
2024/04/23 15:25:56;;;;;;;31.58;29.67;;;;;;;;;;5445284;22;20005;-92
2024/04/23 15:28:25;;;;;;;30.08;28.27;;;;;;;;;;5506399;21;20013;-93
2024/04/23 15:30:51;;;;;;;25.48;23.98;;;;;;;;;;5325873;26;20013;-92